Madeline — WDE3220 — position and weather

sailwx.info

Track history (hours):
 
Tides and Currents Weather Stations Pressure Air Temp Water Temp Dewpoint Dewpoint Depression Visibility Wind Speed Wind Dir Waves Ship Positions

Madeline

Owner: TUG MADELINE, LLC, NEW CASTLE, DE. More information available from US FCC via Universal Licensing System and Coast Guard Vessel Documentation Center.

Last reported at 2015-Apr-18 22:33 UTC. Time now 2015-Apr-18 23:32 UTC.
Position N 39°59' W 075°06'.

; draft 4.6 m.

Type: Tug. MMSI: 367335830.

Date/timePositionNaut miles runAvg speedWind from/ knotsBaromVisibWave heightAir tempDewpointWater temp
2015-Apr-18 22:33N 39°59' W 075°06'1 1.4
2015-Apr-18 21:33N 39°59' W 075°04'10 9.9
2015-Apr-18 20:33N 40°05' W 074°54'3 1.0
2015-Apr-18 17:16N 40°06' W 074°50'710.0
2015-Apr-18 16:33N 40°03' W 074°58'10 9.9
2015-Apr-18 15:33N 39°57' W 075°08'4 4.1
2015-Apr-18 14:33N 39°53' W 075°11'0 0.0
2015-Apr-18 13:33N 39°53' W 075°11'0 0.0
2015-Apr-18 12:33N 39°53' W 075°11'0 0.0
2015-Apr-18 11:33N 39°53' W 075°11'0 0.0
2015-Apr-18 10:33N 39°53' W 075°11'0 0.0
2015-Apr-18 09:33N 39°53' W 075°11'0 0.0
2015-Apr-18 08:33N 39°53' W 075°11'0 0.0
2015-Apr-18 07:33N 39°53' W 075°11'0 0.0
2015-Apr-18 06:33N 39°53' W 075°11'0 0.0
2015-Apr-18 05:33N 39°53' W 075°11'5 4.7
2015-Apr-18 04:33N 39°51' W 075°16'1 0.6
2015-Apr-18 03:33N 39°51' W 075°16'0 0.0
2015-Apr-18 02:33N 39°51' W 075°16'0 0.0
2015-Apr-18 01:33N 39°51' W 075°16'0 0.0
2015-Apr-18 00:33N 39°51' W 075°16'1 0.6
2015-Apr-17 23:33N 39°51' W 075°15'0 0.0
2015-Apr-17 22:33N 39°51' W 075°15'0 0.0
2015-Apr-17 21:33N 39°51' W 075°15'4 3.9
2015-Apr-17 20:33N 39°51' W 075°20'1010.2
2015-Apr-17 19:33N 39°44' W 075°30'1 1.3
2015-Apr-17 18:33N 39°43' W 075°31'0 0.0
2015-Apr-17 17:33N 39°43' W 075°31'0 0.0
2015-Apr-17 16:33N 39°43' W 075°31'0 0.0
2015-Apr-17 15:33N 39°43' W 075°31'0 0.0
2015-Apr-17 14:33N 39°43' W 075°31'5 5.1
2015-Apr-17 13:33N 39°47' W 075°27'7 7.3
2015-Apr-17 12:33N 39°51' W 075°19'2 1.8
2015-Apr-17 11:33N 39°50' W 075°21'3 2.9
2015-Apr-17 10:33N 39°49' W 075°24'5 4.7
2015-Apr-17 09:33N 39°51' W 075°19'0 0.0
2015-Apr-17 08:33N 39°51' W 075°19'2 1.8
2015-Apr-17 07:33N 39°51' W 075°17'1 0.8
2015-Apr-17 06:33N 39°51' W 075°16'1 1.4
2015-Apr-17 05:34N 39°51' W 075°18'6 5.8
2015-Apr-17 04:33N 39°49' W 075°25'0 0.0
2015-Apr-17 03:33N 39°49' W 075°25'0 0.0
2015-Apr-17 02:33N 39°49' W 075°25'0 0.0
2015-Apr-17 01:33N 39°49' W 075°25'0 0.0
2015-Apr-17 00:33N 39°49' W 075°25'0 0.0
2015-Apr-16 23:33N 39°49' W 075°25'0 0.0
2015-Apr-16 22:34N 39°49' W 075°25'0 0.0
2015-Apr-16 21:34N 39°49' W 075°25'0 0.3
2015-Apr-16 20:34N 39°48' W 075°25'0 0.3
2015-Apr-16 19:33N 39°49' W 075°25'0 0.0
2015-Apr-16 18:33N 39°49' W 075°25'0 0.0
2015-Apr-16 17:34N 39°49' W 075°25'2 1.7
2015-Apr-16 16:33N 39°49' W 075°23'5 4.6
2015-Apr-16 15:33N 39°51' W 075°17'5 5.2
2015-Apr-16 14:33N 39°53' W 075°11'0 0.0
2015-Apr-16 13:33N 39°53' W 075°11'0 0.0
2015-Apr-16 12:34N 39°53' W 075°11'0 0.0
2015-Apr-16 11:33N 39°53' W 075°11'0 0.1
2015-Apr-16 10:33N 39°53' W 075°11'0 0.1
2015-Apr-16 09:33N 39°53' W 075°11'0 0.0
2015-Apr-16 08:33N 39°53' W 075°11'0 0.0
2015-Apr-16 07:33N 39°53' W 075°11'5 4.5
2015-Apr-16 06:33N 39°51' W 075°16'0 0.0
2015-Apr-16 05:34N 39°51' W 075°16'2 1.5
2015-Apr-16 04:34N 39°51' W 075°18'6 5.8
2015-Apr-16 03:34N 39°53' W 075°11'0 0.0
2015-Apr-16 02:33N 39°53' W 075°11'0 0.0
2015-Apr-16 01:33N 39°53' W 075°11'4 4.2
2015-Apr-16 00:33N 39°51' W 075°16'0 0.0
2015-Apr-15 23:33N 39°51' W 075°16'0 0.0
2015-Apr-15 22:33N 39°51' W 075°16'4 3.6
2015-Apr-15 21:33N 39°53' W 075°12'1 0.8
2015-Apr-15 20:33N 39°53' W 075°11'0 0.4
2015-Apr-15 19:33N 39°53' W 075°11'0 0.0
2015-Apr-15 18:34N 39°53' W 075°11'0 0.0
2015-Apr-15 17:34N 39°53' W 075°11'4 4.1
2015-Apr-15 16:34N 39°51' W 075°16'3 3.0
2015-Apr-15 15:33N 39°51' W 075°20'2 1.8
2015-Apr-15 14:33N 39°51' W 075°17'1 1.2
2015-Apr-15 13:34N 39°51' W 075°16'0 0.0
2015-Apr-15 12:34N 39°51' W 075°16'0 0.0
2015-Apr-15 11:33N 39°51' W 075°16'0 0.0
2015-Apr-15 10:33N 39°51' W 075°16'0 0.0
2015-Apr-15 09:33N 39°51' W 075°16'0 0.3
2015-Apr-15 08:33N 39°51' W 075°16'0 0.3
2015-Apr-15 07:34N 39°51' W 075°16'0 0.0
2015-Apr-15 06:34N 39°51' W 075°16'0 0.0
2015-Apr-15 05:33N 39°51' W 075°16'1 0.8
2015-Apr-15 04:34N 39°51' W 075°15'10 9.9
2015-Apr-15 03:34N 39°58' W 075°06'3 3.0
2015-Apr-15 02:33N 39°56' W 075°08'4 3.7
2015-Apr-15 01:34N 39°53' W 075°11'0 0.0
2015-Apr-15 00:34N 39°53' W 075°11'0 0.0
2015-Apr-14 23:34N 39°53' W 075°11'0 0.0
2015-Apr-14 22:33N 39°53' W 075°11'0 0.0
2015-Apr-14 21:33N 39°53' W 075°11'0 0.0
2015-Apr-14 20:34N 39°53' W 075°11'0 0.0
2015-Apr-14 19:34N 39°53' W 075°11'0 0.0
2015-Apr-14 18:34N 39°53' W 075°11'4 4.3
2015-Apr-14 17:33N 39°57' W 075°08'3 2.8
2015-Apr-14 16:33N 39°59' W 075°05'0 0.0
2015-Apr-14 15:33N 39°59' W 075°05'0 0.0
2015-Apr-14 14:33N 39°59' W 075°05'0 0.0
2015-Apr-14 13:33N 39°59' W 075°05'0 0.0
2015-Apr-14 12:33N 39°59' W 075°05'1 0.9
2015-Apr-14 11:33N 39°58' W 075°07'3 3.4
2015-Apr-14 10:33N 39°55' W 075°07'8 7.6
2015-Apr-14 09:34N 39°51' W 075°16'0 0.0
2015-Apr-14 08:34N 39°51' W 075°16'0 0.0
2015-Apr-14 07:33N 39°51' W 075°16'0 0.0
2015-Apr-14 06:33N 39°51' W 075°16'0 0.0
2015-Apr-14 05:34N 39°51' W 075°16'0 0.4
2015-Apr-14 04:33N 39°51' W 075°16'0 0.0
2015-Apr-14 03:34N 39°51' W 075°16'2 2.0
2015-Apr-14 02:33N 39°51' W 075°19'6 6.3
2015-Apr-14 01:33N 39°53' W 075°11'0 0.0
2015-Apr-14 00:34N 39°53' W 075°11'0 0.0
2015-Apr-13 23:34N 39°53' W 075°11'0 0.0
2015-Apr-13 22:33N 39°53' W 075°11'0 0.0
2015-Apr-13 21:33N 39°53' W 075°11'0 0.0
2015-Apr-13 20:33N 39°53' W 075°11'0 0.0
2015-Apr-13 19:33N 39°53' W 075°11'0 0.0
2015-Apr-13 18:33N 39°53' W 075°11'0 0.0
2015-Apr-13 17:33N 39°53' W 075°11'0 0.0
2015-Apr-13 16:33N 39°53' W 075°11'  
2015-Apr-10 22:27N 39°53' W 075°10'  
Track history (hours):
 
Tides and Currents Weather Stations Pressure Air Temp Water Temp Dewpoint Dewpoint Depression Visibility Wind Speed Wind Dir Waves Ship Positions

Madeline

Owner: TUG MADELINE, LLC, NEW CASTLE, DE. More information available from US FCC via Universal Licensing System and Coast Guard Vessel Documentation Center.

Last reported at 2015-Apr-18 22:33 UTC. Time now 2015-Apr-18 23:32 UTC.
Position N 39°59' W 075°06'.

; draft 4.6 m.

Type: Tug. MMSI: 367335830.

Date/timePositionNaut miles runAvg speedWind from/ knotsBaromVisibWave heightAir tempDewpointWater temp
2015-Apr-18 22:33N 39°59' W 075°06'1 1.4
2015-Apr-18 21:33N 39°59' W 075°04'10 9.9
2015-Apr-18 20:33N 40°05' W 074°54'3 1.0
2015-Apr-18 17:16N 40°06' W 074°50'710.0
2015-Apr-18 16:33N 40°03' W 074°58'10 9.9
2015-Apr-18 15:33N 39°57' W 075°08'4 4.1
2015-Apr-18 14:33N 39°53' W 075°11'0 0.0
2015-Apr-18 13:33N 39°53' W 075°11'0 0.0
2015-Apr-18 12:33N 39°53' W 075°11'0 0.0
2015-Apr-18 11:33N 39°53' W 075°11'0 0.0
2015-Apr-18 10:33N 39°53' W 075°11'0 0.0
2015-Apr-18 09:33N 39°53' W 075°11'0 0.0
2015-Apr-18 08:33N 39°53' W 075°11'0 0.0
2015-Apr-18 07:33N 39°53' W 075°11'0 0.0
2015-Apr-18 06:33N 39°53' W 075°11'0 0.0
2015-Apr-18 05:33N 39°53' W 075°11'5 4.7
2015-Apr-18 04:33N 39°51' W 075°16'1 0.6
2015-Apr-18 03:33N 39°51' W 075°16'0 0.0
2015-Apr-18 02:33N 39°51' W 075°16'0 0.0
2015-Apr-18 01:33N 39°51' W 075°16'0 0.0
2015-Apr-18 00:33N 39°51' W 075°16'1 0.6
2015-Apr-17 23:33N 39°51' W 075°15'0 0.0
2015-Apr-17 22:33N 39°51' W 075°15'0 0.0
2015-Apr-17 21:33N 39°51' W 075°15'4 3.9
2015-Apr-17 20:33N 39°51' W 075°20'1010.2
2015-Apr-17 19:33N 39°44' W 075°30'1 1.3
2015-Apr-17 18:33N 39°43' W 075°31'0 0.0
2015-Apr-17 17:33N 39°43' W 075°31'0 0.0
2015-Apr-17 16:33N 39°43' W 075°31'0 0.0
2015-Apr-17 15:33N 39°43' W 075°31'0 0.0
2015-Apr-17 14:33N 39°43' W 075°31'5 5.1
2015-Apr-17 13:33N 39°47' W 075°27'7 7.3
2015-Apr-17 12:33N 39°51' W 075°19'2 1.8
2015-Apr-17 11:33N 39°50' W 075°21'3 2.9
2015-Apr-17 10:33N 39°49' W 075°24'5 4.7
2015-Apr-17 09:33N 39°51' W 075°19'0 0.0
2015-Apr-17 08:33N 39°51' W 075°19'2 1.8
2015-Apr-17 07:33N 39°51' W 075°17'1 0.8
2015-Apr-17 06:33N 39°51' W 075°16'1 1.4
2015-Apr-17 05:34N 39°51' W 075°18'6 5.8
2015-Apr-17 04:33N 39°49' W 075°25'0 0.0
2015-Apr-17 03:33N 39°49' W 075°25'0 0.0
2015-Apr-17 02:33N 39°49' W 075°25'0 0.0
2015-Apr-17 01:33N 39°49' W 075°25'0 0.0
2015-Apr-17 00:33N 39°49' W 075°25'0 0.0
2015-Apr-16 23:33N 39°49' W 075°25'0 0.0
2015-Apr-16 22:34N 39°49' W 075°25'0 0.0
2015-Apr-16 21:34N 39°49' W 075°25'0 0.3
2015-Apr-16 20:34N 39°48' W 075°25'0 0.3
2015-Apr-16 19:33N 39°49' W 075°25'0 0.0
2015-Apr-16 18:33N 39°49' W 075°25'0 0.0
2015-Apr-16 17:34N 39°49' W 075°25'2 1.7
2015-Apr-16 16:33N 39°49' W 075°23'5 4.6
2015-Apr-16 15:33N 39°51' W 075°17'5 5.2
2015-Apr-16 14:33N 39°53' W 075°11'0 0.0
2015-Apr-16 13:33N 39°53' W 075°11'0 0.0
2015-Apr-16 12:34N 39°53' W 075°11'0 0.0
2015-Apr-16 11:33N 39°53' W 075°11'0 0.1
2015-Apr-16 10:33N 39°53' W 075°11'0 0.1
2015-Apr-16 09:33N 39°53' W 075°11'0 0.0
2015-Apr-16 08:33N 39°53' W 075°11'0 0.0
2015-Apr-16 07:33N 39°53' W 075°11'5 4.5
2015-Apr-16 06:33N 39°51' W 075°16'0 0.0
2015-Apr-16 05:34N 39°51' W 075°16'2 1.5
2015-Apr-16 04:34N 39°51' W 075°18'6 5.8
2015-Apr-16 03:34N 39°53' W 075°11'0 0.0
2015-Apr-16 02:33N 39°53' W 075°11'0 0.0
2015-Apr-16 01:33N 39°53' W 075°11'4 4.2
2015-Apr-16 00:33N 39°51' W 075°16'0 0.0
2015-Apr-15 23:33N 39°51' W 075°16'0 0.0
2015-Apr-15 22:33N 39°51' W 075°16'4 3.6
2015-Apr-15 21:33N 39°53' W 075°12'1 0.8
2015-Apr-15 20:33N 39°53' W 075°11'0 0.4
2015-Apr-15 19:33N 39°53' W 075°11'0 0.0
2015-Apr-15 18:34N 39°53' W 075°11'0 0.0
2015-Apr-15 17:34N 39°53' W 075°11'4 4.1
2015-Apr-15 16:34N 39°51' W 075°16'3 3.0
2015-Apr-15 15:33N 39°51' W 075°20'2 1.8
2015-Apr-15 14:33N 39°51' W 075°17'1 1.2
2015-Apr-15 13:34N 39°51' W 075°16'0 0.0
2015-Apr-15 12:34N 39°51' W 075°16'0 0.0
2015-Apr-15 11:33N 39°51' W 075°16'0 0.0
2015-Apr-15 10:33N 39°51' W 075°16'0 0.0
2015-Apr-15 09:33N 39°51' W 075°16'0 0.3
2015-Apr-15 08:33N 39°51' W 075°16'0 0.3
2015-Apr-15 07:34N 39°51' W 075°16'0 0.0
2015-Apr-15 06:34N 39°51' W 075°16'0 0.0
2015-Apr-15 05:33N 39°51' W 075°16'1 0.8
2015-Apr-15 04:34N 39°51' W 075°15'10 9.9
2015-Apr-15 03:34N 39°58' W 075°06'3 3.0
2015-Apr-15 02:33N 39°56' W 075°08'4 3.7
2015-Apr-15 01:34N 39°53' W 075°11'0 0.0
2015-Apr-15 00:34N 39°53' W 075°11'0 0.0
2015-Apr-14 23:34N 39°53' W 075°11'0 0.0
2015-Apr-14 22:33N 39°53' W 075°11'0 0.0
2015-Apr-14 21:33N 39°53' W 075°11'0 0.0
2015-Apr-14 20:34N 39°53' W 075°11'0 0.0
2015-Apr-14 19:34N 39°53' W 075°11'0 0.0
2015-Apr-14 18:34N 39°53' W 075°11'4 4.3
2015-Apr-14 17:33N 39°57' W 075°08'3 2.8
2015-Apr-14 16:33N 39°59' W 075°05'0 0.0
2015-Apr-14 15:33N 39°59' W 075°05'0 0.0
2015-Apr-14 14:33N 39°59' W 075°05'0 0.0
2015-Apr-14 13:33N 39°59' W 075°05'0 0.0
2015-Apr-14 12:33N 39°59' W 075°05'1 0.9
2015-Apr-14 11:33N 39°58' W 075°07'3 3.4
2015-Apr-14 10:33N 39°55' W 075°07'8 7.6
2015-Apr-14 09:34N 39°51' W 075°16'0 0.0
2015-Apr-14 08:34N 39°51' W 075°16'0 0.0
2015-Apr-14 07:33N 39°51' W 075°16'0 0.0
2015-Apr-14 06:33N 39°51' W 075°16'0 0.0
2015-Apr-14 05:34N 39°51' W 075°16'0 0.4
2015-Apr-14 04:33N 39°51' W 075°16'0 0.0
2015-Apr-14 03:34N 39°51' W 075°16'2 2.0
2015-Apr-14 02:33N 39°51' W 075°19'6 6.3
2015-Apr-14 01:33N 39°53' W 075°11'0 0.0
2015-Apr-14 00:34N 39°53' W 075°11'0 0.0
2015-Apr-13 23:34N 39°53' W 075°11'0 0.0
2015-Apr-13 22:33N 39°53' W 075°11'0 0.0
2015-Apr-13 21:33N 39°53' W 075°11'0 0.0
2015-Apr-13 20:33N 39°53' W 075°11'0 0.0
2015-Apr-13 19:33N 39°53' W 075°11'0 0.0
2015-Apr-13 18:33N 39°53' W 075°11'0 0.0
2015-Apr-13 17:33N 39°53' W 075°11'0 0.0
2015-Apr-13 16:33N 39°53' W 075°11'  
2015-Apr-10 22:27N 39°53' W 075°10'  

Dump ship's entire track history